createdAt,value
2022-10-11T00:00:13.613Z,0.00
2022-10-11T00:01:13.605Z,0.00
2022-10-11T00:02:13.605Z,0.00
2022-10-11T00:03:13.686Z,0.00
2022-10-11T00:04:13.674Z,0.00
2022-10-11T00:05:13.756Z,0.00
2022-10-11T00:06:13.751Z,0.00
2022-10-11T00:07:13.757Z,0.00
2022-10-11T00:08:13.734Z,0.00
2022-10-11T00:09:13.806Z,0.00
2022-10-11T00:10:13.882Z,0.00
2022-10-11T00:11:13.956Z,0.00
2022-10-11T00:12:13.947Z,0.00
2022-10-11T00:13:13.936Z,0.00
2022-10-11T00:14:14.015Z,0.00
2022-10-11T00:15:14.065Z,0.00
2022-10-11T00:16:14.136Z,0.00
2022-10-11T00:17:14.147Z,0.00
2022-10-11T00:18:14.127Z,0.00
2022-10-11T00:19:14.186Z,0.00
2022-10-11T00:20:14.257Z,0.00
2022-10-11T00:21:14.266Z,0.00
2022-10-11T00:22:14.276Z,0.00
2022-10-11T00:23:14.250Z,0.00
2022-10-11T00:24:14.299Z,0.00
2022-10-11T00:25:14.373Z,0.00
2022-10-11T00:26:14.430Z,0.00
2022-10-11T00:27:14.510Z,0.00
2022-10-11T00:28:14.561Z,0.00
2022-10-11T00:29:14.529Z,0.00
2022-10-11T00:30:14.608Z,0.00
2022-10-11T00:31:14.579Z,0.00
2022-10-11T00:32:14.680Z,0.00
2022-10-11T00:33:14.660Z,0.00
2022-10-11T00:34:14.746Z,0.00
2022-10-11T00:35:14.715Z,0.00
2022-10-11T00:36:14.785Z,0.00
2022-10-11T00:37:14.859Z,0.00
2022-10-11T00:38:14.830Z,0.00
2022-10-11T00:39:14.886Z,0.00
2022-10-11T00:40:14.941Z,0.00
2022-10-11T00:41:14.991Z,0.00
2022-10-11T00:42:14.988Z,0.00
2022-10-11T00:43:15.013Z,0.00
2022-10-11T00:44:15.012Z,0.00
2022-10-11T00:45:15.064Z,0.00
2022-10-11T00:46:15.118Z,0.00
2022-10-11T00:47:15.173Z,0.00
2022-10-11T00:48:15.272Z,0.00
2022-10-11T00:49:15.274Z,0.00
2022-10-11T00:50:15.284Z,0.00
2022-10-11T00:51:15.312Z,0.00
2022-10-11T00:52:15.353Z,0.00
2022-10-11T00:53:15.356Z,0.00
2022-10-11T00:54:15.406Z,0.00
2022-10-11T00:55:15.435Z,0.00
2022-10-11T00:56:15.424Z,0.00
2022-10-11T00:57:15.425Z,0.00
2022-10-11T00:58:15.485Z,0.00
2022-10-11T00:59:15.548Z,0.00
2022-10-11T01:00:15.660Z,0.00
2022-10-11T01:01:15.698Z,0.00
2022-10-11T01:02:15.654Z,0.00
2022-10-11T01:03:15.726Z,0.00
2022-10-11T01:04:15.787Z,0.00
2022-10-11T01:05:29.141Z,0.00
2022-10-11T01:06:15.875Z,0.00
2022-10-11T01:07:15.947Z,0.00
2022-10-11T01:08:15.985Z,0.00
2022-10-11T01:09:16.020Z,0.00
2022-10-11T01:10:16.037Z,0.00
2022-10-11T01:11:16.048Z,0.00
2022-10-11T01:12:16.079Z,0.00
2022-10-11T01:13:16.097Z,0.00
2022-10-11T01:14:16.097Z,0.00
2022-10-11T01:15:16.148Z,0.00
2022-10-11T01:16:16.179Z,0.00
2022-10-11T01:17:16.238Z,0.00
2022-10-11T01:18:16.217Z,0.00
2022-10-11T01:19:16.231Z,0.00
2022-10-11T01:20:16.211Z,0.00
2022-10-11T01:21:16.289Z,0.00
2022-10-11T01:22:16.287Z,0.00
2022-10-11T01:23:16.278Z,0.00
2022-10-11T01:24:16.290Z,0.00
2022-10-11T01:25:16.311Z,0.00
2022-10-11T01:26:16.328Z,0.00
2022-10-11T01:27:16.338Z,0.00
2022-10-11T01:28:16.442Z,0.00
2022-10-11T01:29:16.370Z,0.00
2022-10-11T01:30:16.388Z,0.00
2022-10-11T01:31:16.403Z,0.00
2022-10-11T01:32:16.430Z,0.00
2022-10-11T01:33:16.441Z,0.00
2022-10-11T01:34:16.483Z,0.00
2022-10-11T01:35:16.512Z,0.00
2022-10-11T01:36:16.524Z,0.00
2022-10-11T01:37:16.551Z,0.00
2022-10-11T01:38:16.604Z,0.00
2022-10-11T01:39:16.668Z,0.00
2022-10-11T01:40:16.724Z,0.00
2022-10-11T01:41:16.782Z,0.00
2022-10-11T01:42:16.767Z,0.00
2022-10-11T01:43:16.753Z,0.00
2022-10-11T01:44:16.752Z,0.00
2022-10-11T01:45:16.775Z,0.00
2022-10-11T01:46:16.773Z,0.00
2022-10-11T01:47:16.774Z,0.00
2022-10-11T01:48:16.782Z,0.00
2022-10-11T01:49:16.784Z,0.00
2022-10-11T01:50:16.794Z,0.00
2022-10-11T01:51:16.804Z,0.00
2022-10-11T01:52:16.875Z,0.00
2022-10-11T01:53:16.887Z,0.00
2022-10-11T01:54:16.894Z,0.00
2022-10-11T01:55:16.927Z,0.00
2022-10-11T01:56:16.925Z,0.00
2022-10-11T01:57:16.935Z,0.00
2022-10-11T01:58:16.944Z,0.00
2022-10-11T01:59:16.947Z,0.00
2022-10-11T02:00:16.976Z,0.00
2022-10-11T02:01:17.092Z,0.00
2022-10-11T02:02:17.033Z,0.00
2022-10-11T02:03:17.048Z,0.00
2022-10-11T02:04:17.047Z,0.00
2022-10-11T02:05:17.059Z,0.00
2022-10-11T02:06:17.078Z,0.00
2022-10-11T02:07:17.194Z,0.00
2022-10-11T02:08:17.151Z,0.00
2022-10-11T02:09:17.159Z,0.00
2022-10-11T02:10:17.168Z,0.00
2022-10-11T02:11:17.181Z,0.00
2022-10-11T02:12:17.190Z,0.00
2022-10-11T02:13:17.219Z,0.00
2022-10-11T02:14:17.228Z,0.00
2022-10-11T02:15:17.228Z,0.00
2022-10-11T02:16:17.238Z,0.00
2022-10-11T02:17:17.249Z,0.00
2022-10-11T02:18:17.270Z,0.00
2022-10-11T02:19:17.290Z,0.00
2022-10-11T02:20:17.295Z,0.00
2022-10-11T02:21:17.298Z,0.00
2022-10-11T02:22:17.299Z,0.00
2022-10-11T02:23:17.315Z,0.00
2022-10-11T02:24:17.313Z,0.00
2022-10-11T02:25:17.314Z,0.00
2022-10-11T02:26:17.322Z,0.00
2022-10-11T02:27:17.322Z,0.00
2022-10-11T02:28:17.362Z,0.00
2022-10-11T02:29:17.402Z,0.00
2022-10-11T02:30:17.403Z,0.00
2022-10-11T02:31:17.422Z,0.00
2022-10-11T02:32:17.422Z,0.00
2022-10-11T02:33:17.432Z,0.00
2022-10-11T02:34:17.451Z,0.00
2022-10-11T02:35:17.452Z,0.00
2022-10-11T02:36:17.462Z,0.00
2022-10-11T02:37:17.473Z,0.00
2022-10-11T02:38:17.474Z,0.00
2022-10-11T02:39:17.502Z,0.00
2022-10-11T02:40:17.503Z,0.00
2022-10-11T02:41:17.508Z,0.00
2022-10-11T02:42:17.493Z,0.00
2022-10-11T02:43:17.519Z,0.00
2022-10-11T02:44:17.513Z,0.00
2022-10-11T02:45:17.524Z,0.00
2022-10-11T02:46:17.787Z,0.00
2022-10-11T02:47:17.596Z,0.00
2022-10-11T02:48:17.604Z,0.00
2022-10-11T02:49:17.611Z,0.00
2022-10-11T02:50:17.616Z,0.00
2022-10-11T02:51:17.616Z,0.00
2022-10-11T02:52:17.625Z,0.00
2022-10-11T02:53:17.637Z,0.00
2022-10-11T02:54:17.626Z,0.00
2022-10-11T02:55:17.626Z,0.00
2022-10-11T02:56:17.627Z,0.00
2022-10-11T02:57:17.637Z,0.00
2022-10-11T02:58:17.646Z,0.00
2022-10-11T02:59:17.648Z,0.00
2022-10-11T03:00:17.647Z,0.00
2022-10-11T03:01:17.709Z,0.00
2022-10-11T03:02:17.701Z,0.00
2022-10-11T03:03:17.769Z,0.00
2022-10-11T03:04:17.742Z,0.00
2022-10-11T03:05:17.748Z,0.00
2022-10-11T03:06:17.775Z,0.00
2022-10-11T03:07:17.787Z,0.00
2022-10-11T03:08:17.784Z,0.00
2022-10-11T03:09:17.790Z,0.00
2022-10-11T03:10:17.786Z,0.00
2022-10-11T03:11:17.782Z,0.00
2022-10-11T03:12:18.739Z,0.00
2022-10-11T03:13:18.620Z,0.00
2022-10-11T03:14:17.829Z,0.00
2022-10-11T03:15:17.832Z,0.00
2022-10-11T03:16:17.844Z,0.00
2022-10-11T03:17:35.663Z,0.00
2022-10-11T03:18:17.853Z,0.00
2022-10-11T03:19:19.408Z,0.00
2022-10-11T03:20:17.850Z,0.00
2022-10-11T03:21:17.862Z,0.00
2022-10-11T03:22:17.865Z,0.00
2022-10-11T03:23:17.871Z,0.00
2022-10-11T03:24:17.892Z,0.00
2022-10-11T03:25:17.888Z,0.00
2022-10-11T03:26:17.909Z,0.00
2022-10-11T03:27:17.915Z,0.00
2022-10-11T03:28:17.967Z,0.00
2022-10-11T03:29:17.991Z,0.00
2022-10-11T03:30:18.454Z,0.00
2022-10-11T03:31:17.981Z,0.00
2022-10-11T03:32:17.980Z,0.00
2022-10-11T03:33:17.976Z,0.00
2022-10-11T03:34:17.975Z,0.00
2022-10-11T03:35:17.991Z,0.00
2022-10-11T03:36:18.014Z,0.00
2022-10-11T03:37:18.012Z,0.00
2022-10-11T03:38:18.014Z,0.00
2022-10-11T03:39:18.013Z,0.00
2022-10-11T03:40:18.013Z,0.00
2022-10-11T03:41:18.024Z,0.00
2022-10-11T03:42:18.053Z,0.00
2022-10-11T03:43:18.066Z,0.00
2022-10-11T03:44:18.075Z,0.00
2022-10-11T03:45:18.084Z,0.00
2022-10-11T03:46:18.084Z,0.00
2022-10-11T03:47:18.096Z,0.00
2022-10-11T03:48:18.093Z,0.00
2022-10-11T03:49:18.093Z,0.00
2022-10-11T03:50:18.096Z,0.00
2022-10-11T03:51:18.104Z,0.00
2022-10-11T03:52:18.126Z,0.00
2022-10-11T03:53:18.126Z,0.00
2022-10-11T03:54:18.136Z,0.00
2022-10-11T03:55:18.153Z,0.00
2022-10-11T03:56:18.186Z,0.00
2022-10-11T03:57:18.184Z,0.00
2022-10-11T03:58:18.186Z,0.00
2022-10-11T03:59:18.198Z,0.00
2022-10-11T04:00:18.214Z,0.00
2022-10-11T04:01:18.306Z,0.00
2022-10-11T04:02:18.245Z,0.00
2022-10-11T04:03:18.249Z,0.00
2022-10-11T04:04:18.257Z,0.00
2022-10-11T04:05:18.261Z,0.00
2022-10-11T04:06:18.287Z,0.00
2022-10-11T04:07:18.298Z,0.00
2022-10-11T04:08:18.309Z,0.00
2022-10-11T04:09:18.321Z,0.00
2022-10-11T04:10:18.328Z,0.00
2022-10-11T04:11:18.338Z,0.00
2022-10-11T04:12:18.357Z,0.00
2022-10-11T04:13:18.360Z,0.00
2022-10-11T04:14:18.369Z,0.00
2022-10-11T04:15:18.369Z,0.00
2022-10-11T04:16:18.393Z,0.00
2022-10-11T04:17:18.404Z,0.00
2022-10-11T04:18:18.418Z,0.00
2022-10-11T04:19:18.420Z,0.00
2022-10-11T04:20:18.430Z,0.00
2022-10-11T04:21:18.431Z,0.00
2022-10-11T04:22:18.440Z,0.00
2022-10-11T04:23:18.472Z,0.00
2022-10-11T04:24:18.471Z,0.00
2022-10-11T04:25:18.481Z,0.00
2022-10-11T04:26:18.492Z,0.00
2022-10-11T04:27:18.492Z,0.00
2022-10-11T04:28:18.618Z,0.00
2022-10-11T04:29:18.563Z,0.00
2022-10-11T04:30:18.576Z,0.00
2022-10-11T04:31:18.575Z,0.00
2022-10-11T04:32:18.583Z,0.00
2022-10-11T04:33:18.583Z,0.00
2022-10-11T04:34:18.612Z,0.00
2022-10-11T04:35:18.612Z,0.00
2022-10-11T04:36:18.630Z,0.00
2022-10-11T04:37:18.635Z,0.00
2022-10-11T04:38:18.633Z,0.00
2022-10-11T04:39:18.645Z,0.00
2022-10-11T04:40:18.651Z,0.00
2022-10-11T04:41:18.651Z,0.00
2022-10-11T04:42:18.663Z,0.00
2022-10-11T04:43:18.676Z,0.00
2022-10-11T04:44:18.691Z,0.00
2022-10-11T04:45:18.705Z,0.00
2022-10-11T04:46:18.704Z,0.00
2022-10-11T04:47:18.714Z,0.00
2022-10-11T04:48:18.725Z,0.00
2022-10-11T04:49:18.746Z,0.00
2022-10-11T04:50:18.755Z,0.00
2022-10-11T04:51:18.763Z,0.00
2022-10-11T04:52:22.153Z,0.00
2022-10-11T04:53:18.765Z,0.00
2022-10-11T04:54:18.787Z,0.00
2022-10-11T04:55:18.816Z,0.00
2022-10-11T04:56:18.826Z,0.00
2022-10-11T04:57:18.837Z,0.00
2022-10-11T04:58:18.854Z,0.00
2022-10-11T04:59:18.857Z,0.00
2022-10-11T05:00:18.867Z,0.00
2022-10-11T05:01:18.889Z,0.00
2022-10-11T05:02:18.958Z,0.00
2022-10-11T05:03:18.948Z,0.00
2022-10-11T05:04:18.947Z,0.00
2022-10-11T05:05:18.958Z,0.00
2022-10-11T05:06:18.997Z,0.00
2022-10-11T05:07:18.999Z,0.00
2022-10-11T05:08:19.015Z,0.00
2022-10-11T05:09:18.996Z,0.00
2022-10-11T05:10:18.996Z,0.00
2022-10-11T05:11:18.988Z,0.00
2022-10-11T05:12:18.988Z,0.00
2022-10-11T05:13:19.016Z,0.00
2022-10-11T05:14:19.028Z,0.00
2022-10-11T05:15:19.077Z,0.00
2022-10-11T05:16:19.109Z,0.00
2022-10-11T05:17:19.140Z,0.00
2022-10-11T05:18:19.190Z,0.00
2022-10-11T05:19:19.230Z,0.00
2022-10-11T05:20:19.250Z,0.00
2022-10-11T05:21:19.280Z,0.00
2022-10-11T05:22:19.310Z,0.00
2022-10-11T05:23:19.331Z,0.00
2022-10-11T05:24:19.371Z,0.00
2022-10-11T05:25:19.401Z,0.00
2022-10-11T05:26:19.441Z,0.00
2022-10-11T05:27:19.491Z,0.00
2022-10-11T05:28:19.580Z,0.00
2022-10-11T05:29:19.603Z,5.62
2022-10-11T05:30:19.612Z,5.62
2022-10-11T05:31:19.615Z,5.62
2022-10-11T05:32:19.623Z,5.62
2022-10-11T05:33:19.650Z,5.62
2022-10-11T05:34:19.655Z,5.62
2022-10-11T05:35:19.705Z,11.25
2022-10-11T05:36:19.743Z,11.25
2022-10-11T05:37:19.773Z,11.25
2022-10-11T05:38:19.810Z,11.25
2022-10-11T05:39:19.823Z,11.25
2022-10-11T05:40:19.873Z,16.88
2022-10-11T05:41:19.923Z,16.88
2022-10-11T05:42:20.003Z,16.88
2022-10-11T05:43:20.097Z,22.50
2022-10-11T05:44:20.104Z,22.50
2022-10-11T05:45:20.124Z,22.50
2022-10-11T05:46:20.164Z,28.12
2022-10-11T05:47:20.155Z,28.12
2022-10-11T05:48:20.234Z,28.12
2022-10-11T05:49:20.368Z,33.75
2022-10-11T05:50:24.092Z,33.75
2022-10-11T05:51:20.267Z,39.38
2022-10-11T05:52:20.275Z,39.38
2022-10-11T05:53:20.341Z,45.00
2022-10-11T05:54:20.325Z,50.62
2022-10-11T05:55:20.328Z,56.25
2022-10-11T05:56:20.385Z,56.25
2022-10-11T05:57:20.425Z,56.25
2022-10-11T05:58:20.497Z,61.88
2022-10-11T05:59:20.517Z,67.50
2022-10-11T06:00:20.557Z,67.50
2022-10-11T06:01:20.628Z,73.12
2022-10-11T06:02:20.620Z,78.75
2022-10-11T06:03:20.695Z,84.38
2022-10-11T06:04:20.737Z,84.38
2022-10-11T06:05:20.788Z,95.62
2022-10-11T06:06:20.864Z,106.88
2022-10-11T06:07:20.911Z,118.12
2022-10-11T06:08:20.959Z,135.00
2022-10-11T06:09:20.969Z,140.62
2022-10-11T06:10:21.007Z,140.62
2022-10-11T06:11:21.166Z,140.62
2022-10-11T06:12:21.978Z,185.62
2022-10-11T06:13:21.171Z,208.12
2022-10-11T06:14:21.216Z,225.00
2022-10-11T06:15:21.240Z,230.62
2022-10-11T06:16:21.249Z,275.62
2022-10-11T06:17:21.309Z,298.12
2022-10-11T06:18:21.379Z,315.00
2022-10-11T06:19:21.348Z,331.88
2022-10-11T06:20:21.389Z,376.88
2022-10-11T06:21:21.461Z,410.62
2022-10-11T06:22:21.500Z,433.12
2022-10-11T06:23:21.582Z,450.00
2022-10-11T06:24:21.551Z,489.38
2022-10-11T06:25:21.617Z,523.12
2022-10-11T06:26:21.664Z,545.62
2022-10-11T06:27:21.711Z,579.38
2022-10-11T06:28:21.814Z,601.88
2022-10-11T06:29:21.823Z,630.00
2022-10-11T06:30:21.851Z,618.75
2022-10-11T06:31:21.853Z,540.00
2022-10-11T06:32:21.839Z,534.38
2022-10-11T06:33:21.903Z,556.88
2022-10-11T06:34:21.957Z,669.38
2022-10-11T06:35:21.994Z,748.12
2022-10-11T06:36:22.072Z,742.50
2022-10-11T06:37:22.034Z,821.25
2022-10-11T06:38:22.093Z,838.12
2022-10-11T06:39:22.146Z,798.75
2022-10-11T06:40:22.205Z,770.62
2022-10-11T06:41:22.266Z,770.62
2022-10-11T06:42:22.324Z,776.25
2022-10-11T06:43:22.386Z,894.38
2022-10-11T06:44:22.440Z,990.00
2022-10-11T06:45:22.516Z,1040.62
2022-10-11T06:46:22.567Z,1130.62
2022-10-11T06:47:22.607Z,1085.62
2022-10-11T06:48:22.672Z,1119.38
2022-10-11T06:49:23.622Z,1215.00
2022-10-11T06:50:47.142Z,1113.75
2022-10-11T06:51:22.798Z,1029.38
2022-10-11T06:52:22.850Z,916.88
2022-10-11T06:53:22.863Z,810.00
2022-10-11T06:54:22.859Z,967.50
2022-10-11T06:55:22.928Z,1130.62
2022-10-11T06:56:22.980Z,1220.62
2022-10-11T06:57:23.022Z,1254.38
2022-10-11T06:58:23.061Z,1355.62
2022-10-11T06:59:23.111Z,1406.25
2022-10-11T07:00:23.183Z,1350.00
2022-10-11T07:01:23.309Z,1428.75
2022-10-11T07:02:23.213Z,1327.50
2022-10-11T07:03:23.229Z,1389.38
2022-10-11T07:04:23.243Z,1378.12
2022-10-11T07:05:23.294Z,1254.38
2022-10-11T07:06:23.356Z,1361.25
2022-10-11T07:07:23.408Z,1395.00
2022-10-11T07:08:23.424Z,1400.62
2022-10-11T07:09:23.416Z,1355.62
2022-10-11T07:10:23.464Z,1310.62
2022-10-11T07:11:23.530Z,1383.75
2022-10-11T07:13:49.506Z,1462.50
2022-10-11T07:14:49.542Z,1468.12
2022-10-11T07:15:49.583Z,1552.50
2022-10-11T07:16:49.583Z,1507.50
2022-10-11T07:17:49.674Z,1490.62
2022-10-11T07:18:49.686Z,1507.50
2022-10-11T07:19:49.705Z,1366.88
2022-10-11T07:20:49.685Z,1260.00
2022-10-11T07:21:49.696Z,1316.25
2022-10-11T07:22:49.696Z,1389.38
2022-10-11T07:23:49.716Z,1406.25
2022-10-11T07:24:49.716Z,1423.12
2022-10-11T07:25:49.728Z,1406.25
2022-10-11T07:26:49.738Z,1411.88
2022-10-11T07:27:49.761Z,1428.75
2022-10-11T07:28:49.845Z,1423.12
2022-10-11T07:29:49.748Z,1462.50
2022-10-11T07:30:49.789Z,1490.62
2022-10-11T07:31:49.830Z,1423.12
2022-10-11T07:32:49.880Z,1653.75
2022-10-11T07:33:49.940Z,1946.25
2022-10-11T07:34:49.989Z,1957.50
2022-10-11T07:35:50.036Z,1985.62
2022-10-11T07:36:50.063Z,2041.88
2022-10-11T07:37:50.114Z,2165.62
2022-10-11T07:38:50.173Z,2131.88
2022-10-11T07:39:50.213Z,2109.38
2022-10-11T07:40:50.263Z,2070.00
2022-10-11T07:41:50.305Z,2103.75
2022-10-11T07:42:50.347Z,2160.00
2022-10-11T07:43:50.426Z,2154.38
2022-10-11T07:44:50.486Z,2188.12
2022-10-11T07:45:50.537Z,2199.38
2022-10-11T07:46:50.586Z,2160.00
2022-10-11T07:47:50.626Z,2171.25
2022-10-11T07:48:50.687Z,2075.62
2022-10-11T07:49:50.759Z,2131.88
2022-10-11T07:50:50.797Z,2053.12
2022-10-11T07:51:50.849Z,2109.38
2022-10-11T07:52:50.901Z,2233.12
2022-10-11T07:53:50.949Z,1996.88
2022-10-11T07:54:50.993Z,1935.00
2022-10-11T07:55:51.038Z,2047.50
2022-10-11T07:56:51.089Z,2098.12
2022-10-11T07:57:51.122Z,1816.88
2022-10-11T07:58:51.168Z,1777.50
2022-10-11T07:59:51.237Z,1805.62
2022-10-11T08:00:51.263Z,1918.12
2022-10-11T08:01:51.339Z,2199.38
2022-10-11T08:02:51.303Z,2362.50
2022-10-11T08:03:51.352Z,2340.00
2022-10-11T08:04:51.404Z,2323.12
2022-10-11T08:05:51.456Z,2317.50
2022-10-11T08:06:53.485Z,2250.00
2022-10-11T08:07:51.536Z,2210.62
2022-10-11T08:08:51.622Z,2210.62
2022-10-11T08:09:51.577Z,2233.12
2022-10-11T08:10:51.627Z,2233.12
2022-10-11T08:11:51.677Z,2193.75
2022-10-11T08:12:51.738Z,2205.00
2022-10-11T08:13:51.818Z,2171.25
2022-10-11T08:14:51.840Z,2188.12
2022-10-11T08:15:51.931Z,2233.12
2022-10-11T08:16:51.959Z,2244.38
2022-10-11T08:17:52.011Z,2261.25
2022-10-11T08:18:52.073Z,2193.75
2022-10-11T08:19:52.113Z,2216.25
2022-10-11T08:20:52.199Z,2165.62
2022-10-11T08:21:52.173Z,2154.38
2022-10-11T08:22:52.234Z,2109.38
2022-10-11T08:23:52.283Z,2008.12
2022-10-11T08:24:52.334Z,1873.12
2022-10-11T08:25:52.395Z,1929.38
2022-10-11T08:26:52.475Z,1890.00
2022-10-11T08:27:52.509Z,2002.50
2022-10-11T08:28:52.597Z,1991.25
2022-10-11T08:29:52.540Z,2070.00
2022-10-11T08:30:52.577Z,1980.00
2022-10-11T08:31:52.636Z,2154.38
2022-10-11T08:32:52.648Z,2092.50
2022-10-11T08:33:52.700Z,2171.25
2022-10-11T08:34:52.769Z,2311.88
2022-10-11T08:35:52.750Z,2278.12
2022-10-11T08:36:52.819Z,2115.00
2022-10-11T08:37:52.860Z,2075.62
2022-10-11T08:38:52.897Z,2103.75
2022-10-11T08:39:52.911Z,2137.50
2022-10-11T08:40:52.983Z,2176.88
2022-10-11T08:41:52.957Z,2221.88
2022-10-11T08:42:53.014Z,2019.38
2022-10-11T08:43:53.064Z,1963.12
2022-10-11T08:45:09.923Z,2193.75
2022-10-11T08:45:53.213Z,2086.88
2022-10-11T08:46:56.881Z,1940.62
2022-10-11T08:47:53.236Z,1895.62
2022-10-11T08:48:53.277Z,1923.75
2022-10-11T08:49:53.286Z,1867.50
2022-10-11T08:50:53.337Z,1901.25
2022-10-11T08:51:53.379Z,2227.50
2022-10-11T08:52:53.438Z,2289.38
2022-10-11T08:53:53.486Z,2255.62
2022-10-11T08:54:53.550Z,2160.00
2022-10-11T08:55:53.598Z,2148.75
2022-10-11T08:56:53.653Z,2154.38
2022-10-11T08:57:53.692Z,2193.75
2022-10-11T08:58:53.730Z,2250.00
2022-10-11T08:59:53.790Z,1906.88
2022-10-11T09:00:53.848Z,1569.38
2022-10-11T09:01:54.011Z,1406.25
2022-10-11T09:03:07.912Z,1518.75
2022-10-11T09:03:53.919Z,2075.62
2022-10-11T09:04:53.974Z,2221.88
2022-10-11T09:05:54.033Z,1822.50
2022-10-11T09:06:54.075Z,2098.12
2022-10-11T09:07:54.115Z,2165.62
2022-10-11T09:08:54.158Z,1985.62
2022-10-11T09:09:54.217Z,1884.38
2022-10-11T09:10:54.275Z,1805.62
2022-10-11T09:11:54.326Z,1828.12
2022-10-11T09:12:54.369Z,1833.75
2022-10-11T09:13:54.437Z,1760.62
2022-10-11T09:14:54.511Z,1828.12
2022-10-11T09:15:54.508Z,1698.75
2022-10-11T09:16:54.520Z,1726.88
2022-10-11T09:17:54.528Z,1687.50
2022-10-11T09:18:54.521Z,1586.25
2022-10-11T09:19:54.552Z,1732.50
2022-10-11T09:20:54.553Z,1850.62
2022-10-11T09:21:54.562Z,1766.25
2022-10-11T09:22:54.566Z,1816.88
2022-10-11T09:23:54.563Z,1704.38
2022-10-11T09:24:54.592Z,1935.00
2022-10-11T09:25:54.606Z,2070.00
2022-10-11T09:26:54.605Z,1693.12
2022-10-11T09:28:03.526Z,1400.62
2022-10-11T09:29:00.047Z,1428.75
2022-10-11T09:29:54.677Z,1845.00
2022-10-11T09:30:54.676Z,1530.00
2022-10-11T09:31:54.686Z,1653.75
2022-10-11T09:32:54.689Z,1456.88
2022-10-11T09:33:54.754Z,1305.00
2022-10-11T09:34:54.758Z,1383.75
2022-10-11T09:35:54.767Z,1344.38
2022-10-11T09:36:54.778Z,1456.88
2022-10-11T09:37:54.783Z,1366.88
2022-10-11T09:38:54.829Z,1299.38
2022-10-11T09:39:54.841Z,1321.88
2022-10-11T09:40:54.852Z,1535.62
2022-10-11T09:41:54.852Z,1423.12
2022-10-11T09:42:54.853Z,1288.12
2022-10-11T09:43:54.853Z,1265.62
2022-10-11T09:44:54.874Z,1231.88
2022-10-11T09:45:54.872Z,978.75
2022-10-11T09:46:54.924Z,849.38
2022-10-11T09:47:54.977Z,753.75
2022-10-11T09:48:55.055Z,793.12
2022-10-11T09:49:55.030Z,950.62
2022-10-11T09:50:55.044Z,961.88
2022-10-11T09:51:55.076Z,1001.25
2022-10-11T09:52:55.068Z,1001.25
2022-10-11T09:53:55.127Z,1091.25
2022-10-11T09:54:55.151Z,1091.25
2022-10-11T09:55:55.158Z,1248.75
2022-10-11T09:56:55.171Z,1231.88
2022-10-11T09:57:55.179Z,1170.00
2022-10-11T09:58:55.208Z,1203.75
2022-10-11T09:59:55.193Z,1153.12
2022-10-11T10:00:55.200Z,1158.75
2022-10-11T10:01:55.229Z,1068.75
2022-10-11T10:02:55.202Z,945.00
2022-10-11T10:03:55.253Z,978.75
2022-10-11T10:04:55.308Z,961.88
2022-10-11T10:05:55.392Z,1006.88
2022-10-11T10:06:55.392Z,1006.88
2022-10-11T10:07:55.454Z,877.50
2022-10-11T10:08:55.504Z,838.12
2022-10-11T10:09:55.556Z,849.38
2022-10-11T10:10:59.227Z,866.25
2022-10-11T10:11:55.638Z,900.00
2022-10-11T10:12:55.787Z,804.38
2022-10-11T10:13:55.687Z,787.50
2022-10-11T10:14:55.648Z,804.38
2022-10-11T10:15:55.697Z,849.38
2022-10-11T10:16:55.757Z,877.50
2022-10-11T10:17:55.810Z,871.88
2022-10-11T10:18:55.871Z,855.00
2022-10-11T10:19:55.919Z,528.75
2022-10-11T10:20:55.979Z,489.38
2022-10-11T10:21:56.069Z,483.75
2022-10-11T10:22:56.039Z,466.88
2022-10-11T10:23:56.110Z,461.25
2022-10-11T10:24:56.160Z,472.50
2022-10-11T10:25:56.209Z,787.50
2022-10-11T10:26:56.222Z,770.62
2022-10-11T10:27:56.233Z,573.75
2022-10-11T10:28:56.349Z,556.88
2022-10-11T10:29:56.293Z,517.50
2022-10-11T10:30:56.310Z,523.12
2022-10-11T10:32:56.356Z,720.00
2022-10-11T10:33:56.357Z,720.00
2022-10-11T10:34:56.383Z,736.88
2022-10-11T10:35:56.435Z,663.75
2022-10-11T10:36:56.498Z,641.25
2022-10-11T10:37:56.536Z,641.25
2022-10-11T10:38:56.617Z,658.12
2022-10-11T10:39:56.596Z,675.00
2022-10-11T10:40:56.650Z,652.50
2022-10-11T10:41:56.670Z,680.62
2022-10-11T10:42:56.707Z,658.12
2022-10-11T10:43:56.701Z,641.25
2022-10-11T10:44:56.728Z,635.62
2022-10-11T10:45:56.754Z,601.88
2022-10-11T10:46:56.759Z,618.75
2022-10-11T10:47:56.831Z,624.38
2022-10-11T10:49:34.823Z,613.12
2022-10-11T10:49:56.920Z,585.00
2022-10-11T10:50:56.936Z,534.38
2022-10-11T10:51:57.007Z,540.00
2022-10-11T10:52:57.073Z,540.00
2022-10-11T10:53:57.091Z,545.62
2022-10-11T10:54:57.102Z,556.88
2022-10-11T10:55:57.126Z,573.75
2022-10-11T10:56:57.136Z,545.62
2022-10-11T10:57:57.152Z,511.88
2022-10-11T10:58:57.156Z,506.25
2022-10-11T10:59:57.164Z,489.38
2022-10-11T11:00:57.212Z,489.38
2022-10-11T11:01:57.284Z,495.00
2022-10-11T11:02:57.310Z,495.00
2022-10-11T11:03:57.286Z,495.00
2022-10-11T11:04:57.305Z,478.12
2022-10-11T11:05:57.320Z,495.00
2022-10-11T11:06:57.318Z,495.00
2022-10-11T11:07:57.360Z,461.25
2022-10-11T11:08:57.424Z,450.00
2022-10-11T11:09:57.389Z,461.25
2022-10-11T11:10:57.371Z,472.50
2022-10-11T11:11:57.413Z,466.88
2022-10-11T11:12:57.411Z,489.38
2022-10-11T11:13:57.479Z,517.50
2022-10-11T11:14:57.472Z,511.88
2022-10-11T11:15:57.471Z,489.38
2022-10-11T11:16:57.478Z,483.75
2022-10-11T11:17:57.483Z,483.75
2022-10-11T11:18:57.463Z,466.88
2022-10-11T11:19:57.532Z,466.88
2022-10-11T11:20:57.564Z,466.88
2022-10-11T11:21:57.575Z,489.38
2022-10-11T11:22:57.574Z,511.88
2022-10-11T11:23:57.585Z,517.50
2022-10-11T11:24:57.595Z,500.62
2022-10-11T11:25:57.595Z,483.75
2022-10-11T11:26:57.677Z,461.25
2022-10-11T11:27:57.586Z,450.00
2022-10-11T11:28:57.651Z,450.00
2022-10-11T11:29:57.657Z,455.62
2022-10-11T11:30:57.672Z,455.62
2022-10-11T11:31:57.678Z,466.88
2022-10-11T11:32:57.685Z,472.50
2022-10-11T11:33:57.757Z,500.62
2022-10-11T11:34:57.749Z,489.38
2022-10-11T11:35:57.733Z,495.00
2022-10-11T11:36:57.729Z,495.00
2022-10-11T11:38:02.492Z,483.75
2022-10-11T11:38:57.783Z,472.50
2022-10-11T11:39:57.811Z,483.75
2022-10-11T11:40:57.834Z,478.12
2022-10-11T11:41:57.831Z,478.12
2022-10-11T11:42:57.903Z,455.62
2022-10-11T11:43:57.966Z,455.62
2022-10-11T11:44:57.996Z,455.62
2022-10-11T11:45:58.073Z,466.88
2022-10-11T11:46:58.123Z,461.25
2022-10-11T11:47:58.198Z,455.62
2022-10-11T11:48:58.250Z,450.00
2022-10-11T11:49:58.255Z,444.38
2022-10-11T11:50:58.305Z,444.38
2022-10-11T11:51:58.357Z,444.38
2022-10-11T11:52:58.405Z,466.88
2022-10-11T11:53:58.385Z,495.00
2022-10-11T11:55:03.032Z,466.88
2022-10-11T11:55:58.448Z,489.38
2022-10-11T11:56:58.457Z,495.00
2022-10-11T11:58:00.179Z,534.38
2022-10-11T11:58:58.558Z,590.62
2022-10-11T11:59:58.528Z,613.12
2022-10-11T12:00:58.529Z,590.62
2022-10-11T12:01:58.576Z,607.50
2022-10-11T12:02:58.535Z,540.00
2022-10-11T12:03:58.570Z,556.88
2022-10-11T12:04:58.560Z,545.62
2022-10-11T12:05:58.611Z,607.50
2022-10-11T12:07:15.518Z,601.88
2022-10-11T12:07:58.681Z,613.12
2022-10-11T12:08:58.692Z,618.75
2022-10-11T12:09:58.763Z,613.12
2022-10-11T12:10:58.782Z,607.50
2022-10-11T12:11:58.743Z,613.12
2022-10-11T12:12:58.753Z,607.50
2022-10-11T12:13:58.744Z,601.88
2022-10-11T12:14:58.815Z,590.62
2022-10-11T12:15:58.850Z,573.75
2022-10-11T12:16:58.905Z,562.50
2022-10-11T12:17:58.886Z,568.12
2022-10-11T12:18:58.919Z,579.38
2022-10-11T12:19:58.937Z,601.88
2022-10-11T12:20:58.967Z,585.00
2022-10-11T12:21:58.967Z,562.50
2022-10-11T12:22:59.026Z,540.00
2022-10-11T12:23:59.080Z,517.50
2022-10-11T12:24:59.140Z,478.12
2022-10-11T12:25:59.160Z,450.00
2022-10-11T12:26:59.226Z,450.00
2022-10-11T12:27:59.280Z,466.88
2022-10-11T12:28:59.310Z,478.12
2022-10-11T12:29:59.370Z,478.12
2022-10-11T12:30:59.391Z,483.75
2022-10-11T12:31:59.430Z,472.50
2022-10-11T12:32:59.491Z,466.88
2022-10-11T12:33:59.512Z,461.25
2022-10-11T12:34:59.563Z,455.62
2022-10-11T12:36:01.483Z,455.62
2022-10-11T12:37:02.158Z,444.38
2022-10-11T12:37:59.604Z,405.00
2022-10-11T12:38:59.605Z,438.75
2022-10-11T12:39:59.658Z,433.12
2022-10-11T12:40:59.655Z,427.50
2022-10-11T12:42:01.512Z,427.50
2022-10-11T12:42:59.697Z,421.88
2022-10-11T12:43:59.737Z,421.88
2022-10-11T12:44:59.839Z,416.25
2022-10-11T12:45:59.836Z,416.25
2022-10-11T12:46:59.867Z,416.25